createdAt,value
2019-06-08T00:00:46.843Z,17.18
2019-06-08T00:01:51.066Z,17.08
2019-06-08T00:02:55.818Z,17.08
2019-06-08T00:04:00.011Z,17.15
2019-06-08T00:05:07.265Z,17.20
2019-06-08T00:06:12.634Z,17.16
2019-06-08T00:07:18.822Z,17.20
2019-06-08T00:08:23.102Z,17.26
2019-06-08T00:09:27.942Z,17.27
2019-06-08T00:10:32.369Z,17.31
2019-06-08T00:11:37.188Z,17.27
2019-06-08T00:12:41.373Z,17.11
2019-06-08T00:13:46.606Z,17.11
2019-06-08T00:14:50.867Z,17.04
2019-06-08T00:15:56.033Z,17.03
2019-06-08T00:17:00.220Z,16.98
2019-06-08T00:18:05.595Z,17.07
2019-06-08T00:19:09.775Z,17.11
2019-06-08T00:20:15.432Z,17.12
2019-06-08T00:21:19.705Z,17.15
2019-06-08T00:22:24.820Z,17.26
2019-06-08T00:23:29.006Z,17.15
2019-06-08T00:24:33.859Z,17.20
2019-06-08T00:25:38.095Z,17.22
2019-06-08T00:26:42.863Z,17.27
2019-06-08T00:27:47.138Z,17.36
2019-06-08T00:28:51.902Z,17.25
2019-06-08T00:29:56.090Z,17.25
2019-06-08T00:31:00.896Z,17.18
2019-06-08T00:32:05.079Z,17.21
2019-06-08T00:33:09.850Z,17.15
2019-06-08T00:34:14.514Z,17.16
2019-06-08T00:35:20.666Z,17.12
2019-06-08T00:36:25.134Z,17.14
2019-06-08T00:37:29.906Z,17.14
2019-06-08T00:38:34.350Z,17.09
2019-06-08T00:39:39.383Z,17.15
2019-06-08T00:40:44.211Z,17.08
2019-06-08T00:41:49.009Z,17.09
2019-06-08T00:42:53.311Z,17.05
2019-06-08T00:43:58.030Z,17.01
2019-06-08T00:45:02.483Z,17.05
2019-06-08T00:46:07.289Z,17.03
2019-06-08T00:47:11.449Z,17.03
2019-06-08T00:48:16.717Z,17.01
2019-06-08T00:49:20.954Z,16.99
2019-06-08T00:50:25.721Z,16.91
2019-06-08T00:51:30.006Z,16.91
2019-06-08T00:52:34.848Z,16.87
2019-06-08T00:53:39.106Z,16.86
2019-06-08T00:54:43.922Z,16.88
2019-06-08T00:55:48.064Z,16.84
2019-06-08T00:56:52.973Z,16.86
2019-06-08T00:57:57.143Z,16.93
2019-06-08T00:59:02.105Z,16.98
2019-06-08T01:00:10.627Z,17.00
2019-06-08T01:01:13.257Z,16.98
2019-06-08T01:02:18.243Z,16.98
2019-06-08T01:03:23.821Z,17.01
2019-06-08T01:04:29.145Z,17.05
2019-06-08T01:05:33.985Z,17.12
2019-06-08T01:06:38.202Z,17.15
2019-06-08T01:07:42.962Z,17.20
2019-06-08T01:08:47.353Z,17.24
2019-06-08T01:09:52.122Z,17.26
2019-06-08T01:10:56.383Z,17.35
2019-06-08T01:12:01.462Z,17.38
2019-06-08T01:13:05.725Z,17.44
2019-06-08T01:14:10.525Z,17.51
2019-06-08T01:15:16.402Z,17.57
2019-06-08T01:16:21.202Z,17.62
2019-06-08T01:17:25.382Z,17.67
2019-06-08T01:18:30.291Z,17.71
2019-06-08T01:19:34.505Z,17.75
2019-06-08T01:20:39.349Z,17.74
2019-06-08T01:21:43.477Z,17.64
2019-06-08T01:22:48.382Z,17.64
2019-06-08T01:23:52.566Z,17.75
2019-06-08T01:24:58.414Z,17.75
2019-06-08T01:26:03.174Z,17.75
2019-06-08T01:27:07.997Z,17.76
2019-06-08T01:28:12.854Z,17.81
2019-06-08T01:29:17.699Z,17.83
2019-06-08T01:30:22.254Z,17.80
2019-06-08T01:31:28.369Z,17.81
2019-06-08T01:32:32.577Z,17.77
2019-06-08T01:33:37.368Z,17.75
2019-06-08T01:34:41.563Z,17.78
2019-06-08T01:35:46.330Z,17.75
2019-06-08T01:36:50.587Z,17.84
2019-06-08T01:37:55.498Z,17.87
2019-06-08T01:38:59.694Z,17.87
2019-06-08T01:40:08.291Z,17.93
2019-06-08T01:41:12.472Z,17.96
2019-06-08T01:42:17.242Z,18.01
2019-06-08T01:43:21.844Z,18.00
2019-06-08T01:44:27.950Z,18.02
2019-06-08T01:45:33.169Z,18.02
2019-06-08T01:46:38.186Z,18.06
2019-06-08T01:47:42.371Z,18.05
2019-06-08T01:48:47.142Z,18.07
2019-06-08T01:49:51.359Z,18.03
2019-06-08T01:50:56.151Z,17.99
2019-06-08T01:52:00.421Z,17.98
2019-06-08T01:53:05.171Z,18.04
2019-06-08T01:54:09.348Z,18.05
2019-06-08T01:55:14.144Z,18.03
2019-06-08T01:56:18.357Z,18.03
2019-06-08T01:57:23.181Z,18.06
2019-06-08T01:58:27.452Z,18.04
2019-06-08T01:59:34.550Z,17.96
2019-06-08T02:00:41.486Z,17.96
2019-06-08T02:01:44.684Z,17.96
2019-06-08T02:02:48.870Z,17.95
2019-06-08T02:03:53.638Z,17.90
2019-06-08T02:04:57.822Z,17.87
2019-06-08T02:06:02.775Z,17.92
2019-06-08T02:07:07.010Z,17.98
2019-06-08T02:08:11.775Z,18.00
2019-06-08T02:09:15.963Z,17.93
2019-06-08T02:10:20.727Z,18.02
2019-06-08T02:11:24.984Z,18.02
2019-06-08T02:12:31.072Z,18.05
2019-06-08T02:13:35.400Z,17.82
2019-06-08T02:14:40.167Z,17.82
2019-06-08T02:15:44.464Z,17.86
2019-06-08T02:16:49.248Z,17.80
2019-06-08T02:17:53.420Z,17.76
2019-06-08T02:18:58.203Z,17.79
2019-06-08T02:20:02.421Z,17.78
2019-06-08T02:21:07.201Z,17.65
2019-06-08T02:22:11.482Z,17.60
2019-06-08T02:23:16.250Z,17.56
2019-06-08T02:24:20.435Z,17.53
2019-06-08T02:25:29.376Z,17.51
2019-06-08T02:26:35.146Z,17.53
2019-06-08T02:27:40.758Z,17.54
2019-06-08T02:28:44.946Z,17.64
2019-06-08T02:29:49.747Z,17.61
2019-06-08T02:30:53.935Z,17.62
2019-06-08T02:31:58.786Z,17.69
2019-06-08T02:33:02.972Z,17.62
2019-06-08T02:34:07.811Z,17.60
2019-06-08T02:35:12.017Z,17.61
2019-06-08T02:36:16.808Z,17.65
2019-06-08T02:37:20.991Z,17.70
2019-06-08T02:38:27.472Z,17.68
2019-06-08T02:39:32.742Z,17.66
2019-06-08T02:40:37.662Z,17.70
2019-06-08T02:41:41.829Z,17.70
2019-06-08T02:42:46.632Z,17.69
2019-06-08T02:43:50.810Z,17.72
2019-06-08T02:44:55.588Z,17.65
2019-06-08T02:45:59.811Z,17.65
2019-06-08T02:47:05.480Z,17.65
2019-06-08T02:48:09.728Z,17.56
2019-06-08T02:49:14.519Z,17.51
2019-06-08T02:50:22.082Z,17.53
2019-06-08T02:51:28.639Z,17.56
2019-06-08T02:52:34.224Z,17.55
2019-06-08T02:53:41.395Z,17.52
2019-06-08T02:54:45.790Z,17.53
2019-06-08T02:55:50.805Z,17.57
2019-06-08T02:56:55.067Z,17.61
2019-06-08T02:58:00.136Z,17.60
2019-06-08T02:59:04.640Z,17.56
2019-06-08T03:00:15.649Z,17.51
2019-06-08T03:01:20.145Z,17.50
2019-06-08T03:02:29.621Z,17.46
2019-06-08T03:03:35.745Z,17.43
2019-06-08T03:04:41.284Z,17.47
2019-06-08T03:05:45.554Z,17.45
2019-06-08T03:06:50.325Z,17.49
2019-06-08T03:07:55.070Z,17.46
2019-06-08T03:08:59.960Z,17.32
2019-06-08T03:10:06.045Z,17.24
2019-06-08T03:11:10.980Z,17.18
2019-06-08T03:12:15.168Z,17.20
2019-06-08T03:13:19.944Z,17.21
2019-06-08T03:14:28.802Z,17.21
2019-06-08T03:15:35.068Z,17.21
2019-06-08T03:16:41.555Z,17.18
2019-06-08T03:17:45.928Z,17.19
2019-06-08T03:18:50.126Z,17.17
2019-06-08T03:19:54.940Z,17.14
2019-06-08T03:21:00.153Z,17.10
2019-06-08T03:22:04.921Z,17.19
2019-06-08T03:23:09.103Z,17.07
2019-06-08T03:24:13.880Z,17.09
2019-06-08T03:25:18.256Z,17.08
2019-06-08T03:26:23.190Z,17.13
2019-06-08T03:27:27.370Z,17.12
2019-06-08T03:28:32.660Z,17.04
2019-06-08T03:29:38.986Z,17.01
2019-06-08T03:30:52.971Z,16.99
2019-06-08T03:31:55.744Z,16.94
2019-06-08T03:32:57.337Z,16.87
2019-06-08T03:34:01.818Z,16.86
2019-06-08T03:35:07.493Z,16.91
2019-06-08T03:36:11.708Z,16.97
2019-06-08T03:37:16.588Z,16.86
2019-06-08T03:38:21.478Z,16.87
2019-06-08T03:39:26.251Z,16.89
2019-06-08T03:40:30.771Z,16.95
2019-06-08T03:41:36.257Z,16.85
2019-06-08T03:42:40.843Z,16.82
2019-06-08T03:43:45.683Z,16.85
2019-06-08T03:44:49.869Z,16.85
2019-06-08T03:45:54.636Z,16.91
2019-06-08T03:46:58.825Z,16.90
2019-06-08T03:48:03.687Z,16.92
2019-06-08T03:49:09.004Z,16.88
2019-06-08T03:50:13.828Z,16.76
2019-06-08T03:51:18.101Z,16.77
2019-06-08T03:52:22.958Z,16.79
2019-06-08T03:53:27.245Z,16.81
2019-06-08T03:54:32.079Z,16.81
2019-06-08T03:55:37.998Z,16.89
2019-06-08T03:56:44.168Z,16.90
2019-06-08T03:57:48.395Z,16.88
2019-06-08T03:58:54.295Z,16.96
2019-06-08T03:59:58.542Z,16.93
2019-06-08T04:01:03.311Z,16.94
2019-06-08T04:02:07.564Z,16.93
2019-06-08T04:03:13.597Z,16.82
2019-06-08T04:04:17.929Z,16.78
2019-06-08T04:05:22.673Z,16.65
2019-06-08T04:06:26.860Z,16.57
2019-06-08T04:07:32.973Z,16.51
2019-06-08T04:08:37.975Z,16.56
2019-06-08T04:09:43.974Z,16.57
2019-06-08T04:10:50.442Z,16.62
2019-06-08T04:11:55.322Z,16.66
2019-06-08T04:12:59.798Z,16.66
2019-06-08T04:14:04.781Z,16.75
2019-06-08T04:15:09.047Z,16.79
2019-06-08T04:16:13.851Z,16.80
2019-06-08T04:17:18.105Z,16.81
2019-06-08T04:18:22.953Z,16.82
2019-06-08T04:19:27.552Z,16.81
2019-06-08T04:20:32.673Z,16.83
2019-06-08T04:21:37.869Z,16.87
2019-06-08T04:22:47.080Z,16.86
2019-06-08T04:23:51.742Z,16.87
2019-06-08T04:24:57.494Z,16.76
2019-06-08T04:26:04.227Z,16.67
2019-06-08T04:27:09.014Z,16.73
2019-06-08T04:28:13.337Z,16.77
2019-06-08T04:29:18.103Z,16.80
2019-06-08T04:30:22.548Z,16.80
2019-06-08T04:31:27.381Z,16.75
2019-06-08T04:32:31.896Z,16.69
2019-06-08T04:33:37.799Z,16.71
2019-06-08T04:34:42.924Z,16.78
2019-06-08T04:35:47.987Z,16.85
2019-06-08T04:36:53.447Z,16.88
2019-06-08T04:37:58.320Z,16.92
2019-06-08T04:39:02.583Z,17.00
2019-06-08T04:40:08.200Z,16.98
2019-06-08T04:41:12.382Z,16.92
2019-06-08T04:42:17.210Z,16.97
2019-06-08T04:43:21.395Z,16.99
2019-06-08T04:44:26.189Z,17.00
2019-06-08T04:45:30.551Z,17.00
2019-06-08T04:46:36.382Z,17.07
2019-06-08T04:47:41.499Z,17.13
2019-06-08T04:48:47.897Z,17.18
2019-06-08T04:49:54.105Z,17.19
2019-06-08T04:50:58.901Z,17.20
2019-06-08T04:52:03.266Z,17.19
2019-06-08T04:53:08.151Z,17.25
2019-06-08T04:54:14.578Z,17.27
2019-06-08T04:55:18.878Z,17.29
2019-06-08T04:56:24.219Z,17.35
2019-06-08T04:57:30.427Z,17.41
2019-06-08T04:58:34.572Z,17.43
2019-06-08T04:59:41.156Z,17.36
2019-06-08T05:00:46.278Z,17.30
2019-06-08T05:01:52.182Z,17.21
2019-06-08T05:02:56.358Z,17.20
2019-06-08T05:04:01.187Z,17.11
2019-06-08T05:05:07.074Z,17.11
2019-06-08T05:06:11.864Z,17.14
2019-06-08T05:07:16.165Z,17.12
2019-06-08T05:08:20.930Z,17.13
2019-06-08T05:09:25.178Z,17.14
2019-06-08T05:10:30.144Z,17.12
2019-06-08T05:11:36.409Z,17.07
2019-06-08T05:12:41.358Z,17.04
2019-06-08T05:13:47.515Z,16.99
2019-06-08T05:14:52.663Z,17.02
2019-06-08T05:15:56.972Z,17.04
2019-06-08T05:17:01.742Z,17.02
2019-06-08T05:18:06.225Z,17.00
2019-06-08T05:19:10.981Z,17.03
2019-06-08T05:20:15.182Z,17.05
2019-06-08T05:21:20.164Z,17.08
2019-06-08T05:22:24.675Z,17.10
2019-06-08T05:23:29.518Z,17.09
2019-06-08T05:24:33.704Z,17.03
2019-06-08T05:25:39.077Z,16.88
2019-06-08T05:26:43.650Z,16.85
2019-06-08T05:27:49.543Z,16.79
2019-06-08T05:28:53.981Z,16.76
2019-06-08T05:29:59.746Z,16.73
2019-06-08T05:31:04.684Z,16.69
2019-06-08T05:32:09.611Z,16.78
2019-06-08T05:33:13.794Z,16.84
2019-06-08T05:34:18.567Z,16.85
2019-06-08T05:35:22.751Z,16.85
2019-06-08T05:36:27.542Z,16.89
2019-06-08T05:37:31.959Z,16.95
2019-06-08T05:38:36.966Z,17.04
2019-06-08T05:39:41.457Z,17.01
2019-06-08T05:40:46.286Z,17.09
2019-06-08T05:41:50.616Z,17.10
2019-06-08T05:42:55.389Z,17.05
2019-06-08T05:43:59.604Z,17.03
2019-06-08T05:45:08.462Z,16.99
2019-06-08T05:46:12.646Z,17.10
2019-06-08T05:47:17.507Z,17.13
2019-06-08T05:48:21.709Z,17.10
2019-06-08T05:49:26.507Z,17.13
2019-06-08T05:50:30.786Z,17.07
2019-06-08T05:51:35.558Z,17.08
2019-06-08T05:52:39.933Z,17.17
2019-06-08T05:53:45.853Z,17.22
2019-06-08T05:54:50.263Z,17.30
2019-06-08T05:55:56.199Z,17.26
2019-06-08T05:57:00.475Z,17.25
2019-06-08T05:58:05.523Z,17.28
2019-06-08T05:59:09.726Z,17.28
2019-06-08T06:00:14.604Z,17.14
2019-06-08T06:01:18.913Z,17.14
2019-06-08T06:02:23.697Z,17.08
2019-06-08T06:03:27.883Z,17.11
2019-06-08T06:04:32.657Z,17.15
2019-06-08T06:05:36.910Z,17.18
2019-06-08T06:06:42.415Z,17.23
2019-06-08T06:07:46.780Z,17.28
2019-06-08T06:08:51.671Z,17.35
2019-06-08T06:09:55.861Z,17.33
2019-06-08T06:11:01.783Z,17.26
2019-06-08T06:12:05.967Z,17.19
2019-06-08T06:13:10.891Z,17.26
2019-06-08T06:14:15.165Z,17.34
2019-06-08T06:15:19.935Z,17.26
2019-06-08T06:16:25.423Z,17.19
2019-06-08T06:17:30.214Z,17.26
2019-06-08T06:18:34.401Z,17.35
2019-06-08T06:19:39.201Z,17.32
2019-06-08T06:20:45.266Z,17.37
2019-06-08T06:21:51.573Z,17.38
2019-06-08T06:22:58.591Z,17.41
2019-06-08T06:24:03.862Z,17.40
2019-06-08T06:25:08.807Z,17.44
2019-06-08T06:26:13.613Z,17.43
2019-06-08T06:27:17.795Z,17.50
2019-06-08T06:28:22.591Z,17.48
2019-06-08T06:29:26.799Z,17.48
2019-06-08T06:30:31.646Z,17.54
2019-06-08T06:31:35.821Z,17.63
2019-06-08T06:32:41.747Z,17.64
2019-06-08T06:33:47.854Z,17.67
2019-06-08T06:34:52.823Z,17.64
2019-06-08T06:35:58.027Z,17.63
2019-06-08T06:37:02.794Z,17.66
2019-06-08T06:38:07.032Z,17.72
2019-06-08T06:39:11.878Z,17.71
2019-06-08T06:40:16.170Z,17.64
2019-06-08T06:41:20.937Z,17.52
2019-06-08T06:42:25.964Z,17.53
2019-06-08T06:43:30.735Z,17.54
2019-06-08T06:44:35.095Z,17.48
2019-06-08T06:45:39.859Z,17.49
2019-06-08T06:46:44.067Z,17.48
2019-06-08T06:47:50.347Z,17.49
2019-06-08T06:48:55.156Z,17.48
2019-06-08T06:49:59.994Z,17.50
2019-06-08T06:51:05.231Z,17.53
2019-06-08T06:52:10.079Z,17.50
2019-06-08T06:53:14.271Z,17.47
2019-06-08T06:54:19.045Z,17.43
2019-06-08T06:55:25.380Z,17.48
2019-06-08T06:56:29.791Z,17.55
2019-06-08T06:57:36.475Z,17.56
2019-06-08T06:58:41.517Z,17.54
2019-06-08T06:59:45.758Z,17.40
2019-06-08T07:00:51.566Z,17.47
2019-06-08T07:01:57.672Z,17.45
2019-06-08T07:03:02.559Z,17.56
2019-06-08T07:04:06.914Z,17.62
2019-06-08T07:05:11.770Z,17.69
2019-06-08T07:06:16.027Z,17.60
2019-06-08T07:07:20.817Z,17.60
2019-06-08T07:08:26.127Z,17.68
2019-06-08T07:09:31.107Z,17.71
2019-06-08T07:10:35.366Z,17.76
2019-06-08T07:11:40.280Z,17.83
2019-06-08T07:12:46.517Z,17.86
2019-06-08T07:13:51.312Z,17.95
2019-06-08T07:14:55.603Z,18.00
2019-06-08T07:16:17.170Z,18.04
2019-06-08T07:17:09.046Z,18.07
2019-06-08T07:18:13.925Z,18.10
2019-06-08T07:19:18.357Z,18.12
2019-06-08T07:20:23.221Z,18.09
2019-06-08T07:21:40.867Z,18.09
2019-06-08T07:22:33.991Z,18.05
2019-06-08T07:23:38.316Z,18.11
2019-06-08T07:24:43.086Z,18.06
2019-06-08T07:25:48.410Z,18.04
2019-06-08T07:26:54.462Z,18.02
2019-06-08T07:27:59.794Z,18.03
2019-06-08T07:29:05.691Z,18.00
2019-06-08T07:30:10.306Z,18.01
2019-06-08T07:31:15.078Z,18.06
2019-06-08T07:32:19.355Z,18.07
2019-06-08T07:33:24.177Z,18.15
2019-06-08T07:34:28.435Z,18.16
2019-06-08T07:35:33.920Z,18.12
2019-06-08T07:36:38.176Z,18.17
2019-06-08T07:37:42.968Z,18.23
2019-06-08T07:38:48.676Z,18.30
2019-06-08T07:39:53.766Z,18.37
2019-06-08T07:40:59.994Z,18.31
2019-06-08T07:42:05.274Z,18.16
2019-06-08T07:43:09.631Z,18.11
2019-06-08T07:44:14.504Z,18.14
2019-06-08T07:45:18.720Z,18.15
2019-06-08T07:46:23.656Z,18.12
2019-06-08T07:47:27.841Z,18.13
2019-06-08T07:48:33.702Z,18.18
2019-06-08T07:49:38.183Z,18.26
2019-06-08T07:50:42.988Z,18.26
2019-06-08T07:51:58.681Z,18.29
2019-06-08T07:52:54.647Z,18.18
2019-06-08T07:53:59.900Z,18.20
2019-06-08T07:55:06.834Z,18.17
2019-06-08T07:56:11.022Z,18.17
2019-06-08T07:57:15.820Z,18.27
2019-06-08T07:58:20.032Z,18.34
2019-06-08T07:59:24.875Z,18.34
2019-06-08T08:00:29.202Z,18.48
2019-06-08T08:01:36.479Z,18.56
2019-06-08T08:02:40.350Z,18.64
2019-06-08T08:03:45.113Z,18.75
2019-06-08T08:04:50.509Z,18.68
2019-06-08T08:05:56.727Z,18.60
2019-06-08T08:07:01.140Z,18.58
2019-06-08T08:08:06.045Z,18.61
2019-06-08T08:09:10.242Z,18.64
2019-06-08T08:10:15.124Z,18.68
2019-06-08T08:11:19.428Z,18.70
2019-06-08T08:12:24.250Z,18.72
2019-06-08T08:13:28.582Z,18.73
2019-06-08T08:14:34.400Z,18.77
2019-06-08T08:15:38.722Z,18.79
2019-06-08T08:16:43.592Z,18.84
2019-06-08T08:17:49.058Z,18.87
2019-06-08T08:18:53.987Z,18.89
2019-06-08T08:19:59.406Z,18.96
2019-06-08T08:21:14.319Z,19.03
2019-06-08T08:22:22.334Z,18.99
2019-06-08T08:23:17.378Z,18.97
2019-06-08T08:24:23.259Z,19.10
2019-06-08T08:25:28.245Z,19.20
2019-06-08T08:26:34.446Z,19.23
2019-06-08T08:27:39.156Z,19.24
2019-06-08T08:28:43.511Z,19.27
2019-06-08T08:29:48.976Z,19.33
2019-06-08T08:30:55.416Z,19.22
2019-06-08T08:32:01.994Z,19.21
2019-06-08T08:33:07.789Z,19.22
2019-06-08T08:34:12.799Z,19.26
2019-06-08T08:35:18.573Z,19.31
2019-06-08T08:36:23.401Z,19.38
2019-06-08T08:37:28.156Z,19.40
2019-06-08T08:38:32.958Z,19.38
2019-06-08T08:39:37.629Z,19.39
2019-06-08T08:40:43.723Z,19.39
2019-06-08T08:41:53.716Z,19.43
2019-06-08T08:42:55.709Z,19.46
2019-06-08T08:44:04.293Z,19.52
2019-06-08T08:45:08.667Z,19.56
2019-06-08T08:46:13.384Z,19.63
2019-06-08T08:47:18.668Z,19.63
2019-06-08T08:48:28.163Z,19.60
2019-06-08T08:49:29.530Z,19.64
2019-06-08T08:50:33.715Z,19.59
2019-06-08T08:51:38.879Z,19.58
2019-06-08T08:52:43.077Z,19.60
2019-06-08T08:53:48.144Z,19.68
2019-06-08T08:54:54.312Z,19.74
2019-06-08T08:56:01.276Z,19.77
2019-06-08T08:57:07.714Z,19.71
2019-06-08T08:58:13.161Z,19.77
2019-06-08T08:59:17.850Z,19.82
2019-06-08T09:00:22.954Z,19.79
2019-06-08T09:01:28.916Z,19.74
2019-06-08T09:02:34.003Z,19.72
2019-06-08T09:03:39.600Z,19.73
2019-06-08T09:04:44.791Z,19.82
2019-06-08T09:05:49.001Z,19.84
2019-06-08T09:06:55.345Z,19.86
2019-06-08T09:08:02.086Z,19.91
2019-06-08T09:09:08.922Z,19.93
2019-06-08T09:10:13.362Z,19.81
2019-06-08T09:11:18.157Z,19.78
2019-06-08T09:12:22.375Z,19.68
2019-06-08T09:13:28.102Z,19.64
2019-06-08T09:14:33.574Z,19.51
2019-06-08T09:15:38.423Z,19.51
2019-06-08T09:16:43.111Z,19.56
2019-06-08T09:17:48.374Z,19.58
2019-06-08T09:18:53.748Z,19.62
2019-06-08T09:20:00.339Z,19.59
2019-06-08T09:21:08.162Z,19.59
2019-06-08T09:22:12.095Z,19.59
2019-06-08T09:23:21.609Z,19.60
2019-06-08T09:24:24.035Z,19.62
2019-06-08T09:25:28.282Z,19.69
2019-06-08T09:26:34.704Z,19.76
2019-06-08T09:27:39.028Z,19.81
2019-06-08T09:28:43.842Z,19.89
2019-06-08T09:29:48.330Z,19.96
2019-06-08T09:30:54.152Z,20.03
2019-06-08T09:32:00.734Z,20.06
2019-06-08T09:33:07.809Z,19.99
2019-06-08T09:34:15.193Z,20.05
2019-06-08T09:35:18.633Z,20.06
2019-06-08T09:36:23.813Z,20.08
2019-06-08T09:37:28.926Z,19.97
2019-06-08T09:38:33.144Z,19.99
2019-06-08T09:39:38.509Z,19.98
2019-06-08T09:40:43.073Z,20.02
2019-06-08T09:41:48.077Z,20.03
2019-06-08T09:42:55.875Z,20.08
2019-06-08T09:44:02.367Z,20.17
2019-06-08T09:45:09.331Z,20.16
2019-06-08T09:46:14.181Z,20.22
2019-06-08T09:47:18.603Z,20.22
2019-06-08T09:48:23.401Z,20.12
2019-06-08T09:49:28.086Z,20.14
2019-06-08T09:50:32.858Z,20.15
2019-06-08T09:51:37.887Z,20.17
2019-06-08T09:52:42.754Z,20.08
2019-06-08T09:53:47.625Z,20.08
2019-06-08T09:54:54.175Z,19.95
2019-06-08T09:56:02.431Z,20.02
2019-06-08T09:57:06.621Z,20.07
2019-06-08T09:58:11.981Z,19.99
2019-06-08T09:59:18.834Z,20.05
2019-06-08T10:00:26.332Z,20.13
2019-06-08T10:01:30.197Z,20.19
2019-06-08T10:02:34.389Z,20.17
2019-06-08T10:03:39.414Z,20.22
2019-06-08T10:04:43.644Z,20.10
2019-06-08T10:05:48.567Z,19.99
2019-06-08T10:06:54.227Z,20.04
2019-06-08T10:08:00.885Z,20.09
2019-06-08T10:09:09.019Z,20.18
2019-06-08T10:10:13.627Z,20.19
2019-06-08T10:11:17.907Z,20.19
2019-06-08T10:12:22.675Z,20.22
2019-06-08T10:13:28.061Z,20.21
2019-06-08T10:14:33.682Z,20.24
2019-06-08T10:15:38.739Z,20.24
2019-06-08T10:16:43.679Z,20.11
2019-06-08T10:17:47.993Z,20.17
2019-06-08T10:18:52.762Z,20.12
2019-06-08T10:19:59.401Z,20.10
2019-06-08T10:21:06.019Z,20.13
2019-06-08T10:22:09.447Z,20.22
2019-06-08T10:23:30.317Z,20.21
2019-06-08T10:24:20.097Z,20.27
2019-06-08T10:25:24.971Z,20.31
2019-06-08T10:26:29.270Z,20.39
2019-06-08T10:27:34.125Z,20.51
2019-06-08T10:28:39.038Z,20.51
2019-06-08T10:29:44.888Z,20.50
2019-06-08T10:30:49.158Z,20.59
2019-06-08T10:31:55.106Z,20.71
2019-06-08T10:33:01.827Z,20.70
2019-06-08T10:34:11.002Z,20.81
2019-06-08T10:35:14.353Z,20.91
2019-06-08T10:36:19.184Z,20.94
2019-06-08T10:37:23.458Z,20.97
2019-06-08T10:38:28.938Z,21.05
2019-06-08T10:39:33.399Z,21.10
2019-06-08T10:40:39.319Z,21.15
2019-06-08T10:41:43.492Z,21.22
2019-06-08T10:42:48.429Z,21.27
2019-06-08T10:43:53.624Z,21.28
2019-06-08T10:45:02.818Z,21.30
2019-06-08T10:46:10.268Z,21.30
2019-06-08T10:47:12.088Z,21.40
2019-06-08T10:48:17.922Z,21.49
2019-06-08T10:49:22.832Z,21.56
2019-06-08T10:50:28.788Z,21.63
2019-06-08T10:51:33.675Z,21.60
2019-06-08T10:52:39.130Z,21.55
2019-06-08T10:53:49.343Z,21.57
2019-06-08T10:54:50.412Z,21.65
2019-06-08T10:55:57.850Z,21.75
2019-06-08T10:57:05.007Z,21.85
2019-06-08T10:58:10.899Z,21.82
2019-06-08T10:59:14.273Z,21.76
2019-06-08T11:00:23.992Z,21.82
2019-06-08T11:01:28.800Z,21.80
2019-06-08T11:02:33.674Z,21.78
2019-06-08T11:03:38.842Z,21.68
2019-06-08T11:04:43.870Z,21.43
2019-06-08T11:05:48.315Z,21.38
2019-06-08T11:06:54.828Z,21.42
2019-06-08T11:08:00.665Z,21.49
2019-06-08T11:09:12.292Z,21.50
2019-06-08T11:10:12.906Z,21.60
2019-06-08T11:11:20.196Z,21.68
2019-06-08T11:12:28.126Z,21.77
2019-06-08T11:13:32.313Z,21.89
2019-06-08T11:14:38.169Z,21.91
2019-06-08T11:15:42.977Z,21.97
2019-06-08T11:16:47.569Z,21.91
2019-06-08T11:17:53.577Z,21.97
2019-06-08T11:18:59.076Z,22.01
2019-06-08T11:20:11.155Z,22.08
2019-06-08T11:21:13.070Z,22.20
2019-06-08T11:22:18.971Z,22.18
2019-06-08T11:23:23.156Z,21.97
2019-06-08T11:24:28.948Z,21.84
2019-06-08T11:25:34.324Z,21.90
2019-06-08T11:26:40.334Z,21.96
2019-06-08T11:27:44.672Z,22.06
2019-06-08T11:28:51.222Z,22.10
2019-06-08T11:29:57.451Z,22.04
2019-06-08T11:31:01.966Z,22.14
2019-06-08T11:32:09.318Z,22.15
2019-06-08T11:33:12.642Z,22.08
2019-06-08T11:34:18.691Z,22.03
2019-06-08T11:35:23.318Z,22.09
2019-06-08T11:36:28.166Z,22.06
2019-06-08T11:37:33.093Z,22.04
2019-06-08T11:38:38.231Z,22.10
2019-06-08T11:39:43.049Z,22.19
2019-06-08T11:40:47.831Z,22.28
2019-06-08T11:41:52.670Z,22.27
2019-06-08T11:42:58.618Z,22.29
2019-06-08T11:44:03.821Z,22.29
2019-06-08T11:45:12.735Z,22.32
2019-06-08T11:46:20.627Z,22.37
2019-06-08T11:47:21.952Z,22.33
2019-06-08T11:48:28.520Z,22.20
2019-06-08T11:49:32.831Z,22.10
2019-06-08T11:50:42.363Z,22.12
2019-06-08T11:51:47.832Z,22.10
2019-06-08T11:52:52.724Z,22.06
2019-06-08T11:53:59.268Z,22.09
2019-06-08T11:55:05.363Z,22.16
2019-06-08T11:56:11.740Z,22.11
2019-06-08T11:57:17.695Z,22.21
2019-06-08T11:58:23.231Z,22.19
2019-06-08T11:59:28.559Z,22.26
2019-06-08T12:00:55.658Z,22.23
2019-06-08T12:02:01.912Z,22.18
2019-06-08T12:03:08.832Z,22.15
2019-06-08T12:04:13.564Z,22.16
2019-06-08T12:05:18.161Z,22.13
2019-06-08T12:06:23.685Z,22.06
2019-06-08T12:07:30.294Z,22.05
2019-06-08T12:08:34.475Z,22.02
2019-06-08T12:09:38.664Z,22.01
2019-06-08T12:10:43.527Z,22.02
2019-06-08T12:11:48.104Z,22.08
2019-06-08T12:12:52.968Z,22.15
2019-06-08T12:13:58.492Z,22.19
2019-06-08T12:15:03.364Z,22.22
2019-06-08T12:16:15.028Z,22.26
2019-06-08T12:17:19.196Z,22.15
2019-06-08T12:18:21.258Z,22.21
2019-06-08T12:19:28.391Z,22.34
2019-06-08T12:20:31.914Z,22.38
2019-06-08T12:21:36.690Z,22.35
2019-06-08T12:22:40.894Z,22.40
2019-06-08T12:23:45.658Z,22.43
2019-06-08T12:24:49.838Z,22.36
2019-06-08T12:25:55.354Z,22.33
2019-06-08T12:27:09.357Z,22.28
2019-06-08T12:28:06.443Z,22.31
2019-06-08T12:29:13.051Z,22.37
2019-06-08T12:30:24.931Z,22.46
2019-06-08T12:31:23.070Z,22.51
2019-06-08T12:32:27.923Z,22.54
2019-06-08T12:33:32.186Z,22.60
2019-06-08T12:34:38.377Z,22.64
2019-06-08T12:35:42.928Z,22.63
2019-06-08T12:36:48.199Z,22.56
2019-06-08T12:37:52.371Z,22.58
2019-06-08T12:38:58.611Z,22.56
2019-06-08T12:40:02.850Z,22.53
2019-06-08T12:41:09.586Z,22.61
2019-06-08T12:42:18.758Z,22.63
2019-06-08T12:43:20.391Z,22.63
2019-06-08T12:44:28.455Z,22.60
2019-06-08T12:45:31.166Z,22.66
2019-06-08T12:46:38.353Z,22.64
2019-06-08T12:47:41.813Z,22.67
2019-06-08T12:48:45.995Z,22.66
2019-06-08T12:49:50.762Z,22.66
2019-06-08T12:50:54.965Z,22.69
2019-06-08T12:51:59.736Z,22.73
2019-06-08T12:53:11.244Z,22.80
2019-06-08T12:54:12.764Z,22.86
2019-06-08T12:55:22.290Z,22.88
2019-06-08T12:56:24.341Z,22.96
2019-06-08T12:57:28.706Z,22.94
2019-06-08T12:58:33.415Z,23.10
2019-06-08T12:59:38.441Z,23.14
2019-06-08T13:00:44.330Z,23.20
2019-06-08T13:01:48.535Z,23.28
2019-06-08T13:02:53.317Z,23.24
2019-06-08T13:03:58.074Z,23.24
2019-06-08T13:05:03.059Z,23.27
2019-06-08T13:06:09.155Z,23.26
2019-06-08T13:07:14.963Z,23.19
2019-06-08T13:08:21.483Z,23.07
2019-06-08T13:09:29.706Z,23.06
2019-06-08T13:10:31.650Z,23.04
2019-06-08T13:11:36.419Z,23.05
2019-06-08T13:12:40.988Z,22.99
2019-06-08T13:13:48.889Z,23.00
2019-06-08T13:14:52.734Z,23.01
2019-06-08T13:15:58.060Z,23.07
2019-06-08T13:17:02.278Z,23.10
2019-06-08T13:18:09.854Z,23.17
2019-06-08T13:19:14.378Z,23.24
2019-06-08T13:20:22.187Z,23.24
2019-06-08T13:21:34.483Z,23.24
2019-06-08T13:22:32.441Z,23.26
2019-06-08T13:23:38.337Z,23.27
2019-06-08T13:24:43.121Z,23.29
2019-06-08T13:25:48.080Z,23.30
2019-06-08T13:26:52.991Z,23.36
2019-06-08T13:27:58.372Z,23.38
2019-06-08T13:29:03.170Z,23.40
2019-06-08T13:30:07.619Z,23.47
2019-06-08T13:31:14.786Z,23.52
2019-06-08T13:32:20.667Z,23.54
2019-06-08T13:33:28.113Z,23.41
2019-06-08T13:34:32.232Z,23.41
2019-06-08T13:35:39.573Z,23.35
2019-06-08T13:36:42.883Z,23.35
2019-06-08T13:37:47.755Z,23.37
2019-06-08T13:38:51.938Z,23.43
2019-06-08T13:39:59.189Z,23.43
2019-06-08T13:41:02.654Z,23.45
2019-06-08T13:42:07.811Z,23.48
2019-06-08T13:43:13.281Z,23.46
2019-06-08T13:44:18.099Z,23.49
2019-06-08T13:45:23.502Z,23.40
2019-06-08T13:46:28.384Z,23.33
2019-06-08T13:47:32.542Z,23.28
2019-06-08T13:48:37.677Z,23.27
2019-06-08T13:49:41.862Z,23.35
2019-06-08T13:50:49.333Z,23.31
2019-06-08T13:51:52.597Z,23.30
2019-06-08T13:52:58.775Z,23.30
2019-06-08T13:54:03.214Z,23.31
2019-06-08T13:55:09.026Z,23.35
2019-06-08T13:56:13.215Z,23.40
2019-06-08T13:57:21.844Z,23.45
2019-06-08T13:58:29.783Z,23.52
2019-06-08T13:59:31.035Z,23.56